Aviation Digital Data Service (ADDS)

Output produced by METARs form (0257 UTC 18 August 2017)
found at http://www.aviationweather.gov/adds/metars/
 
LSMA 180150Z AUTO VRB02KT 9999NDV NCD 18/17 Q1019 RMK
LSZB 180250Z AUTO VRB02KT 9999 NSC 16/15 Q1019
TAF LSZB 180225Z 1803/1812 VRB03KT CAVOK 
     BECMG 1810/1812 9999 FEW070
       
LSMD 180150Z AUTO VRB01KT 9999NDV FEW038 BKN050 18/17 Q1019 RMK
LSME 180250Z AUTO 34001KT 9999NDV NCD 18/17 Q1019 RMK
LSGG 180250Z AUTO 25002KT 9999 NSC 16/14 Q1019 NOSIG
TAF LSGG 180225Z 1803/1909 VRB03KT CAVOK TX29/1815Z TN17/1805Z TN16/1905Z 
     BECMG 1812/1815 23008KT 9999 SCT050 BKN080 
     TEMPO 1815/1822 4500 TSRA SCT030CB BKN040 
     BECMG 1823/1901 NSW
       
LSGC 180250Z AUTO VRB01KT 9999 NCD 12/12 Q1021
LSZA 180250Z AUTO 00000KT 9999 FEW070 20/18 Q1019
TAF LSZA 180225Z 1803/1812 VRB03KT CAVOK 
     TEMPO 1803/1812 9999 FEW060
       
LSMM 180150Z AUTO 11003KT 050V160 9999NDV NCD 16/16 Q1020 RMK
LSMP 180150Z AUTO VRB02KT 9999NDV FEW240 17/16 Q1019 RMK
LSZS 180250Z AUTO 15001KT 9999 BKN018 08/08 Q1026
LSGS 180250Z AUTO VRB02KT CAVOK 19/14 Q1020
TAF LSGS 180225Z 1803/1812 VRB03KT CAVOK 
     BECMG 1810/1812 25012KT
       
LSZR 180250Z AUTO VRB01KT 9999 NSC 18/17 Q1018
TAF LSZR 180225Z 1803/1812 VRB03KT CAVOK 
     PROB30 1803/1807 4000 MIFG NSC 
     BECMG 1810/1812 9999 FEW070
       
LSZH 180250Z 00000KT 9999 MIFG NSC 17/15 Q1019 NOSIG
TAF COR LSZH 180225Z 1803/1909 VRB03KT 9999 FEW035 SCT040 TX29/1814Z TN16/1804Z TN15/1906Z 
     BECMG 1803/1805 4000 MIFG NSC 
     PROB30 1803/1807 1500 BCFG 
     BECMG 1805/1807 CAVOK 
     BECMG 1814/1817 27010KT 9999 SHRA FEW060TCU 
     TEMPO 1816/1820 29020G40KT 3000 TSRA FEW010 SCT030CB BKN060 
     BECMG 1822/1902 VRB03KT NSW 
     PROB40 
     TEMPO 1906/1908 SHRA FEW020 SCT060